Time;durP1;ratioP1;P1;durP2;ratioP2;P2;SDS_P1;SDS_P2;PMS_P1;PMS_P2;Temp;Humidity;BMP_temperature;BMP_pressure;BME280_temperature;BME280_humidity;BME280_pressure;Samples;Min_cycle;Max_cycle;Signal;HPM_P1;HPM_P2
2023/06/14 00:00:15;;;;;;;14.50;4.07;;;23.30;48.80;;;;;;5025031;28;20099;-55
2023/06/14 00:02:41;;;;;;;9.88;3.80;;;23.30;48.80;;;;;;5024799;28;20022;-54
2023/06/14 00:05:07;;;;;;;6.82;3.65;;;23.20;48.80;;;;;;5024939;28;20061;-55
2023/06/14 00:07:43;;;;;;;10.00;3.60;;;23.30;48.80;;;;;;5006964;28;20036;-55
2023/06/14 00:10:10;;;;;;;9.63;3.92;;;23.20;48.90;;;;;;5023470;28;20034;-55
2023/06/14 00:12:36;;;;;;;10.82;4.00;;;23.20;49.00;;;;;;5023368;28;20022;-54
2023/06/14 00:15:01;;;;;;;9.52;3.67;;;23.10;49.10;;;;;;5023222;28;20030;-55
2023/06/14 00:17:31;;;;;;;8.57;4.07;;;23.10;49.20;;;;;;5027436;28;20041;-55
2023/06/14 00:19:57;;;;;;;9.48;3.70;;;23.10;49.10;;;;;;5027394;28;20034;-54
2023/06/14 00:22:26;;;;;;;8.68;3.70;;;23.00;49.20;;;;;;5027388;28;20029;-55
2023/06/14 00:24:52;;;;;;;7.68;3.30;;;23.00;49.30;;;;;;5027201;28;20029;-55
2023/06/14 00:27:17;;;;;;;10.95;3.85;;;23.00;49.40;;;;;;5027210;28;20080;-54
2023/06/14 00:29:43;;;;;;;9.27;3.60;;;22.90;49.40;;;;;;5027150;28;20038;-54
2023/06/14 00:32:08;;;;;;;6.60;3.63;;;22.90;49.40;;;;;;5027128;28;20022;-55
2023/06/14 00:34:34;;;;;;;4.60;3.33;;;22.90;49.50;;;;;;5028550;28;20084;-55
2023/06/14 00:37:00;;;;;;;13.98;3.72;;;22.90;49.50;;;;;;5026995;28;20418;-55
2023/06/14 00:39:25;;;;;;;8.45;3.35;;;22.80;49.50;;;;;;5010500;28;20041;-54
2023/06/14 00:41:51;;;;;;;6.60;3.58;;;22.80;49.60;;;;;;5026954;28;20022;-54
2023/06/14 00:44:17;;;;;;;6.85;3.85;;;22.70;49.70;;;;;;5026975;28;20486;-54
2023/06/14 00:46:43;;;;;;;6.20;3.28;;;22.70;49.70;;;;;;5026874;28;20026;-55
2023/06/14 00:49:09;;;;;;;8.15;4.18;;;22.70;49.80;;;;;;5026802;28;20060;-54
2023/06/14 00:51:35;;;;;;;5.68;3.67;;;22.70;49.80;;;;;;5026661;28;20103;-54
2023/06/14 00:54:00;;;;;;;7.15;3.67;;;22.70;49.80;;;;;;5026758;28;20025;-55
2023/06/14 00:56:27;;;;;;;7.43;3.50;;;22.60;49.90;;;;;;5010280;28;20041;-54
2023/06/14 00:58:53;;;;;;;8.98;3.53;;;22.60;50.00;;;;;;5026867;28;20046;-54
2023/06/14 01:01:18;;;;;;;6.90;3.60;;;22.60;50.10;;;;;;5026761;28;20043;-55
2023/06/14 01:03:44;;;;;;;7.32;3.60;;;22.60;50.20;;;;;;5026636;28;20092;-54
2023/06/14 01:06:26;;;;;;;5.65;3.22;;;22.60;50.30;;;;;;5027748;28;20041;-54
2023/06/14 01:08:58;;;;;;;8.80;3.15;;;22.50;50.20;;;;;;5042896;28;20129;-55
2023/06/14 01:11:31;;;;;;;4.95;3.10;;;22.50;50.10;;;;;;5026540;28;20037;-54
2023/06/14 01:13:56;;;;;;;6.18;3.25;;;22.50;50.20;;;;;;5009792;28;20034;-54
2023/06/14 01:16:22;;;;;;;6.30;3.58;;;22.40;50.20;;;;;;5026271;28;20026;-54
2023/06/14 01:18:49;;;;;;;5.60;3.55;;;22.40;50.30;;;;;;5026206;28;20038;-54
2023/06/14 01:21:22;;;;;;;5.65;3.30;;;22.30;50.30;;;;;;5026248;28;20436;-55
2023/06/14 01:23:52;;;;;;;4.25;3.10;;;22.30;50.40;;;;;;5026282;28;20112;-54
2023/06/14 01:26:24;;;;;;;6.53;3.38;;;22.30;50.40;;;;;;5026050;28;20079;-54
2023/06/14 01:28:50;;;;;;;8.23;3.60;;;22.30;50.50;;;;;;5025858;28;20030;-55
2023/06/14 01:31:17;;;;;;;9.57;4.38;;;22.20;50.60;;;;;;5026136;28;20057;-55
2023/06/14 01:33:43;;;;;;;8.07;3.33;;;22.20;50.70;;;;;;5025850;28;20026;-54
2023/06/14 01:36:09;;;;;;;6.28;3.63;;;22.20;50.80;;;;;;5025914;28;20033;-54
2023/06/14 01:38:34;;;;;;;4.85;3.60;;;22.20;50.70;;;;;;5025870;28;20509;-54
2023/06/14 01:41:01;;;;;;;6.65;3.28;;;22.10;50.60;;;;;;5025743;28;20036;-54
2023/06/14 01:43:28;;;;;;;4.57;3.40;;;22.20;50.80;;;;;;5025767;28;20036;-55
2023/06/14 01:45:53;;;;;;;4.47;3.10;;;22.10;50.90;;;;;;5025609;28;20099;-55
2023/06/14 01:48:19;;;;;;;6.00;3.28;;;22.10;50.90;;;;;;5026008;28;20093;-55
2023/06/14 01:50:45;;;;;;;8.35;3.47;;;22.00;50.90;;;;;;5025961;28;20033;-54
2023/06/14 01:53:10;;;;;;;7.35;3.35;;;22.00;51.00;;;;;;5027247;28;20022;-55
2023/06/14 01:55:43;;;;;;;4.38;2.83;;;22.00;50.90;;;;;;5025592;28;20076;-54
2023/06/14 01:58:08;;;;;;;5.07;2.65;;;22.00;50.90;;;;;;5025617;28;20026;-55
2023/06/14 02:00:34;;;;;;;6.00;3.35;;;22.00;50.90;;;;;;5008875;28;20029;-55
2023/06/14 02:03:00;;;;;;;7.80;3.53;;;22.00;51.10;;;;;;5026758;28;20025;-54
2023/06/14 02:05:26;;;;;;;7.50;3.47;;;21.90;51.10;;;;;;5009161;28;20029;-55
2023/06/14 02:07:53;;;;;;;8.05;3.55;;;21.90;51.00;;;;;;5026635;28;20026;-54
2023/06/14 02:10:18;;;;;;;6.30;3.60;;;21.90;51.10;;;;;;5026624;28;20061;-55
2023/06/14 02:12:44;;;;;;;5.20;3.45;;;21.90;51.20;;;;;;5025268;28;20022;-54
2023/06/14 02:15:16;;;;;;;6.47;4.13;;;21.80;51.20;;;;;;5025080;28;20057;-55
2023/06/14 02:17:49;;;;;;;7.28;3.80;;;21.80;51.30;;;;;;5025338;28;20100;-55
2023/06/14 02:20:15;;;;;;;7.63;4.15;;;21.80;51.40;;;;;;5026621;28;20049;-54
2023/06/14 02:22:40;;;;;;;9.27;4.07;;;21.80;51.40;;;;;;5024827;28;20041;-55
2023/06/14 02:25:07;;;;;;;6.60;3.60;;;21.80;51.40;;;;;;5026623;28;20033;-55
2023/06/14 02:27:33;;;;;;;4.85;3.75;;;21.70;51.40;;;;;;5025036;28;20029;-54
2023/06/14 02:29:59;;;;;;;5.22;3.97;;;21.70;51.40;;;;;;5008847;28;20025;-55
2023/06/14 02:32:27;;;;;;;7.60;3.83;;;21.70;51.50;;;;;;5026157;28;20057;-55
2023/06/14 02:34:53;;;;;;;7.72;3.85;;;21.70;51.60;;;;;;5026171;28;20036;-54
2023/06/14 02:37:19;;;;;;;8.75;3.85;;;21.70;51.70;;;;;;5008372;28;20098;-55
2023/06/14 02:39:44;;;;;;;7.10;4.15;;;21.60;51.80;;;;;;5025398;28;20041;-54
2023/06/14 02:42:10;;;;;;;6.78;3.58;;;21.60;51.90;;;;;;5024648;28;20033;-55
2023/06/14 02:44:35;;;;;;;6.70;3.85;;;21.50;52.00;;;;;;5024686;28;20029;-55
2023/06/14 02:47:01;;;;;;;11.40;3.90;;;21.50;52.20;;;;;;5024533;28;20089;-54
2023/06/14 02:49:27;;;;;;;7.05;4.40;;;21.50;52.20;;;;;;5025815;28;20046;-55
2023/06/14 02:51:52;;;;;;;7.32;3.95;;;21.50;52.30;;;;;;5025958;28;20034;-55
2023/06/14 02:54:18;;;;;;;8.82;4.30;;;21.40;52.30;;;;;;5024485;28;20044;-54
2023/06/14 02:56:43;;;;;;;4.35;3.95;;;21.40;52.40;;;;;;5024573;28;20030;-54
2023/06/14 02:59:09;;;;;;;8.35;4.78;;;21.40;52.40;;;;;;5024243;28;20090;-55
2023/06/14 03:01:35;;;;;;;6.07;4.55;;;21.40;52.50;;;;;;5024223;28;20056;-54
2023/06/14 03:04:03;;;;;;;9.32;4.82;;;21.40;52.50;;;;;;5024310;28;20497;-55
2023/06/14 03:06:33;;;;;;;8.48;5.28;;;21.40;52.60;;;;;;5024206;28;20029;-54
2023/06/14 03:08:59;;;;;;;8.50;4.57;;;21.40;52.60;;;;;;5024259;28;20037;-55
2023/06/14 03:11:25;;;;;;;8.70;5.00;;;21.30;52.60;;;;;;5025368;28;20104;-55
2023/06/14 03:13:52;;;;;;;10.73;4.70;;;21.30;52.80;;;;;;5007579;28;20041;-54
2023/06/14 03:16:22;;;;;;;10.07;5.43;;;21.30;52.80;;;;;;5024099;28;20045;-55
2023/06/14 03:18:49;;;;;;;11.48;5.68;;;21.30;52.90;;;;;;5024114;28;20044;-54
2023/06/14 03:21:16;;;;;;;11.43;6.60;;;21.20;52.90;;;;;;5025161;28;20184;-54
2023/06/14 03:23:42;;;;;;;10.98;6.63;;;21.20;53.00;;;;;;5025255;28;20102;-54
2023/06/14 03:26:07;;;;;;;16.05;7.05;;;21.20;53.10;;;;;;5007213;28;20041;-54
2023/06/14 03:28:33;;;;;;;13.23;7.68;;;21.20;53.20;;;;;;5023832;28;20030;-55
2023/06/14 03:30:59;;;;;;;13.70;7.95;;;21.10;53.20;;;;;;5024964;28;20022;-55
2023/06/14 03:33:25;;;;;;;70.35;12.68;;;21.10;53.30;;;;;;5023904;28;20108;-54
2023/06/14 03:35:51;;;;;;;97.65;15.48;;;21.10;54.00;;;;;;5023682;28;20069;-55
2023/06/14 03:38:17;;;;;;;50.75;11.65;;;21.10;53.50;;;;;;5023740;28;20053;-54
2023/06/14 03:40:43;;;;;;;37.70;10.60;;;21.00;53.50;;;;;;5023717;28;20422;-55
2023/06/14 03:43:08;;;;;;;40.33;11.27;;;21.00;53.50;;;;;;5024895;28;20029;-54
2023/06/14 03:45:34;;;;;;;33.47;11.35;;;21.00;53.60;;;;;;5025102;28;20036;-54
2023/06/14 03:48:00;;;;;;;31.67;10.65;;;21.00;53.60;;;;;;5023375;28;20022;-54
2023/06/14 03:50:26;;;;;;;30.25;10.63;;;21.00;53.60;;;;;;5025059;28;20014;-55
2023/06/14 03:52:52;;;;;;;39.05;10.98;;;21.00;53.70;;;;;;5024916;28;20026;-55
2023/06/14 03:55:18;;;;;;;35.88;10.13;;;21.00;53.70;;;;;;5023523;28;20064;-55
2023/06/14 03:57:43;;;;;;;38.72;10.73;;;20.90;53.70;;;;;;5023544;28;20026;-54
2023/06/14 04:00:10;;;;;;;46.15;10.65;;;20.90;54.40;;;;;;5024897;28;20038;-55
2023/06/14 04:02:36;;;;;;;24.88;10.07;;;20.90;53.80;;;;;;5023492;28;20030;-54
2023/06/14 04:05:02;;;;;;;36.35;9.57;;;20.90;53.80;;;;;;5024998;28;20030;-54
2023/06/14 04:07:28;;;;;;;35.83;10.10;;;20.90;53.80;;;;;;5024633;28;20093;-55
2023/06/14 04:09:54;;;;;;;34.28;10.20;;;20.80;53.70;;;;;;5024924;28;20113;-54
2023/06/14 04:12:20;;;;;;;25.00;9.50;;;20.80;53.80;;;;;;5023426;28;20030;-54
2023/06/14 04:14:45;;;;;;;29.65;9.50;;;20.80;53.70;;;;;;5024547;28;20478;-54
2023/06/14 04:17:11;;;;;;;25.73;9.27;;;20.80;53.80;;;;;;5023118;28;20448;-54
2023/06/14 04:19:36;;;;;;;32.25;9.52;;;20.80;53.90;;;;;;5023241;28;20088;-54
2023/06/14 04:22:02;;;;;;;34.67;10.35;;;20.70;53.90;;;;;;5024471;28;20026;-54
2023/06/14 04:24:32;;;;;;;35.13;10.30;;;20.70;53.90;;;;;;5024726;28;20364;-54
2023/06/14 04:26:58;;;;;;;28.27;9.90;;;20.70;53.90;;;;;;5023266;28;20583;-57
2023/06/14 04:29:26;;;;;;;27.63;9.25;;;20.70;53.90;;;;;;5023199;28;20037;-57
2023/06/14 04:31:53;;;;;;;31.50;8.27;;;20.70;53.90;;;;;;5023263;28;20140;-56
2023/06/14 04:34:19;;;;;;;23.88;9.45;;;20.70;54.00;;;;;;5022981;28;20034;-57
2023/06/14 04:36:48;;;;;;;27.63;9.25;;;20.70;53.90;;;;;;5024414;28;20117;-56
2023/06/14 04:39:17;;;;;;;25.63;9.40;;;20.60;53.90;;;;;;5024459;28;20041;-57
2023/06/14 04:41:43;;;;;;;25.08;8.63;;;20.70;53.90;;;;;;5023110;28;20076;-57
2023/06/14 04:44:09;;;;;;;24.65;8.27;;;20.70;54.00;;;;;;5024425;28;20037;-57
2023/06/14 04:46:45;;;;;;;27.13;8.57;;;20.60;54.00;;;;;;5023029;28;20029;-56
2023/06/14 04:49:14;;;;;;;21.10;7.45;;;20.60;54.10;;;;;;5023153;28;20057;-57
2023/06/14 04:51:40;;;;;;;20.88;8.13;;;20.60;54.20;;;;;;5024314;28;20164;-57
2023/06/14 04:54:09;;;;;;;17.65;7.32;;;20.60;54.20;;;;;;5023145;28;20030;-57
2023/06/14 04:56:38;;;;;;;24.67;7.72;;;20.60;54.30;;;;;;5024428;28;20052;-57
2023/06/14 04:59:06;;;;;;;24.52;8.45;;;20.60;54.60;;;;;;5022828;28;20038;-57
2023/06/14 05:01:33;;;;;;;22.42;7.50;;;20.60;54.90;;;;;;5022974;28;20026;-57
2023/06/14 05:03:58;;;;;;;22.73;8.07;;;20.60;54.50;;;;;;5025891;28;20029;-57
2023/06/14 05:06:24;;;;;;;18.75;7.88;;;20.50;54.50;;;;;;5026310;28;20033;-57
2023/06/14 05:08:50;;;;;;;21.70;8.10;;;20.50;54.60;;;;;;5026532;28;20402;-57
2023/06/14 05:11:17;;;;;;;22.85;6.78;;;20.50;54.50;;;;;;5027790;28;20026;-57
2023/06/14 05:13:44;;;;;;;17.77;7.03;;;20.50;54.60;;;;;;5026240;28;20477;-58
2023/06/14 05:16:11;;;;;;;21.25;7.20;;;20.50;54.70;;;;;;5026318;28;20033;-57
2023/06/14 05:18:37;;;;;;;14.35;7.13;;;20.50;54.70;;;;;;5025991;28;20144;-57
2023/06/14 05:21:05;;;;;;;15.70;6.90;;;20.50;54.70;;;;;;5027249;28;20053;-57
2023/06/14 05:23:31;;;;;;;15.75;6.78;;;20.50;54.60;;;;;;5025942;28;20061;-55
2023/06/14 05:25:56;;;;;;;19.67;6.57;;;20.40;54.60;;;;;;5027577;28;20030;-54
2023/06/14 05:28:22;;;;;;;13.43;6.63;;;20.40;54.60;;;;;;5026104;28;20033;-54
2023/06/14 05:30:48;;;;;;;19.10;6.65;;;20.40;54.70;;;;;;5025982;28;20080;-53
2023/06/14 05:33:13;;;;;;;15.77;6.03;;;20.40;54.50;;;;;;5027343;28;20041;-55
2023/06/14 05:35:39;;;;;;;13.93;4.65;;;20.40;54.50;;;;;;5027301;28;20053;-54
2023/06/14 05:38:05;;;;;;;13.32;4.25;;;20.30;54.40;;;;;;5027387;28;20041;-54
2023/06/14 05:40:31;;;;;;;9.52;4.28;;;20.20;54.40;;;;;;5026060;28;20037;-54
2023/06/14 05:42:56;;;;;;;11.70;4.35;;;20.10;54.30;;;;;;5027396;28;20030;-55
2023/06/14 05:45:22;;;;;;;10.73;4.70;;;20.10;54.40;;;;;;5009921;28;20057;-54
2023/06/14 05:47:47;;;;;;;5.55;3.85;;;20.10;54.50;;;;;;5027388;28;20034;-54
2023/06/14 05:50:13;;;;;;;9.05;3.88;;;20.00;54.60;;;;;;5027323;28;20039;-54
2023/06/14 05:52:38;;;;;;;9.18;3.53;;;20.00;54.60;;;;;;5025739;28;20032;-55
2023/06/14 05:55:04;;;;;;;11.02;3.80;;;20.00;54.70;;;;;;5027196;28;20041;-54
2023/06/14 05:57:30;;;;;;;5.38;3.38;;;19.90;54.70;;;;;;5025867;28;20036;-54
2023/06/14 05:59:56;;;;;;;11.00;3.92;;;19.90;54.80;;;;;;5044589;28;20434;-54
2023/06/14 06:02:21;;;;;;;7.38;3.95;;;19.90;54.70;;;;;;5045003;28;20041;-54
2023/06/14 06:04:47;;;;;;;7.88;3.92;;;19.90;54.80;;;;;;5045263;28;20396;-54
2023/06/14 06:07:12;;;;;;;9.52;3.40;;;19.90;54.90;;;;;;5045217;28;20021;-54
2023/06/14 06:09:38;;;;;;;7.80;3.15;;;19.80;55.00;;;;;;5043591;28;20377;-54
2023/06/14 06:12:06;;;;;;;9.02;3.33;;;19.80;55.10;;;;;;5042846;28;20029;-55
2023/06/14 06:14:31;;;;;;;6.15;3.15;;;19.80;55.30;;;;;;5041554;28;20038;-54
2023/06/14 06:16:57;;;;;;;4.95;3.10;;;19.80;55.40;;;;;;5043061;28;20239;-54
2023/06/14 06:19:22;;;;;;;6.05;3.70;;;19.80;55.40;;;;;;5043961;28;20029;-54
2023/06/14 06:21:48;;;;;;;5.38;3.17;;;19.70;55.50;;;;;;5042574;28;20044;-54
2023/06/14 06:24:13;;;;;;;4.88;3.28;;;19.70;55.60;;;;;;5044914;28;20044;-55
2023/06/14 06:26:39;;;;;;;6.22;3.30;;;19.70;55.70;;;;;;5046241;28;20034;-54
2023/06/14 06:29:05;;;;;;;6.60;3.30;;;19.70;55.80;;;;;;5045003;28;20030;-55
2023/06/14 06:31:31;;;;;;;6.22;3.08;;;19.70;55.80;;;;;;5045104;28;20466;-55
2023/06/14 06:33:56;;;;;;;7.35;3.55;;;19.70;56.10;;;;;;5046375;28;20029;-54
2023/06/14 06:36:22;;;;;;;4.85;3.00;;;19.60;56.20;;;;;;5045259;28;20036;-54
2023/06/14 06:38:48;;;;;;;10.18;3.30;;;19.60;56.10;;;;;;5045089;28;20060;-54
2023/06/14 06:41:13;;;;;;;7.35;3.30;;;19.60;56.20;;;;;;5045980;28;20102;-54
2023/06/14 06:43:39;;;;;;;8.05;3.80;;;19.60;56.40;;;;;;5045532;28;20025;-54
2023/06/14 06:46:05;;;;;;;15.05;3.85;;;19.60;56.30;;;;;;5044204;28;20055;-54
2023/06/14 06:48:30;;;;;;;6.80;3.03;;;19.60;56.30;;;;;;5044244;28;20025;-54
2023/06/14 06:50:56;;;;;;;8.45;4.07;;;19.60;56.40;;;;;;5045718;28;20512;-55
2023/06/14 06:53:21;;;;;;;10.80;3.88;;;19.60;56.30;;;;;;5045483;28;20029;-54
2023/06/14 06:55:48;;;;;;;16.10;4.38;;;19.60;56.30;;;;;;5044126;28;20061;-54
2023/06/14 06:58:14;;;;;;;5.95;3.80;;;19.70;56.50;;;;;;5044094;28;20041;-55
2023/06/14 07:00:39;;;;;;;10.05;3.67;;;19.70;56.70;;;;;;5044091;28;20056;-55
2023/06/14 07:03:05;;;;;;;13.50;4.00;;;19.70;56.70;;;;;;5045410;28;20037;-54
2023/06/14 07:05:31;;;;;;;9.32;3.97;;;19.60;56.70;;;;;;5045531;28;20029;-54
2023/06/14 07:07:57;;;;;;;12.15;3.97;;;19.70;56.80;;;;;;5045221;28;20049;-54
2023/06/14 07:10:24;;;;;;;7.28;3.47;;;19.70;56.70;;;;;;5043965;28;20049;-55
2023/06/14 07:12:50;;;;;;;8.18;3.88;;;19.70;56.80;;;;;;5045162;28;20490;-54
2023/06/14 07:15:16;;;;;;;11.52;4.03;;;19.70;56.80;;;;;;5027253;28;20402;-54
2023/06/14 07:17:42;;;;;;;7.18;3.42;;;19.70;56.90;;;;;;5044119;28;20038;-54
2023/06/14 07:20:11;;;;;;;9.32;3.78;;;19.70;56.90;;;;;;5044167;28;20084;-55
2023/06/14 07:22:37;;;;;;;6.90;3.45;;;19.70;56.90;;;;;;5030376;28;20064;-54
2023/06/14 07:25:03;;;;;;;11.75;3.90;;;19.70;56.90;;;;;;5037139;28;20033;-55
2023/06/14 07:27:29;;;;;;;8.32;3.63;;;19.70;57.10;;;;;;5045073;28;20029;-55
2023/06/14 07:29:54;;;;;;;8.00;3.25;;;19.80;57.10;;;;;;5043452;28;20094;-53
2023/06/14 07:32:20;;;;;;;5.57;3.45;;;19.40;57.00;;;;;;5031026;28;20025;-55
2023/06/14 07:34:45;;;;;;;4.93;3.28;;;19.70;57.10;;;;;;5045209;28;20022;-54
2023/06/14 07:37:11;;;;;;;6.03;3.10;;;19.80;57.20;;;;;;5030883;28;20048;-55
2023/06/14 07:39:36;;;;;;;12.10;3.40;;;19.80;57.10;;;;;;5031853;28;20109;-55
2023/06/14 07:42:02;;;;;;;7.93;3.33;;;19.70;57.00;;;;;;5034686;28;20029;-54
2023/06/14 07:44:31;;;;;;;6.95;2.88;;;19.80;57.10;;;;;;5029535;28;20025;-55
2023/06/14 07:46:59;;;;;;;19.77;4.30;;;19.80;57.10;;;;;;5043937;28;20030;-55
2023/06/14 07:49:25;;;;;;;15.40;4.15;;;19.80;57.00;;;;;;5044623;28;20037;-54
2023/06/14 07:51:51;;;;;;;14.20;3.88;;;19.90;57.00;;;;;;5029056;28;20099;-54
2023/06/14 07:54:17;;;;;;;24.58;4.85;;;19.80;56.90;;;;;;5040777;28;20084;-54
2023/06/14 07:56:42;;;;;;;21.65;4.50;;;19.80;56.80;;;;;;5031071;28;20131;-55
2023/06/14 07:59:08;;;;;;;31.33;5.22;;;19.90;56.90;;;;;;5037456;28;20041;-55
2023/06/14 08:01:34;;;;;;;8.85;3.20;;;19.90;56.60;;;;;;5023597;28;20076;-54
2023/06/14 08:04:00;;;;;;;16.33;4.25;;;19.90;56.30;;;;;;5038492;28;20026;-54
2023/06/14 08:06:26;;;;;;;14.30;3.97;;;19.90;56.20;;;;;;5039949;28;20049;-54
2023/06/14 08:08:51;;;;;;;27.40;6.35;;;19.90;56.10;;;;;;5023455;28;20466;-54
2023/06/14 08:11:17;;;;;;;12.20;3.75;;;20.00;56.20;;;;;;5022609;28;20112;-54
2023/06/14 08:13:42;;;;;;;29.73;5.38;;;20.00;55.90;;;;;;5041740;28;20026;-54
2023/06/14 08:16:08;;;;;;;23.42;5.50;;;20.00;56.00;;;;;;5041151;28;20033;-54
2023/06/14 08:18:33;;;;;;;39.45;7.65;;;19.80;55.80;;;;;;5038527;28;20053;-54
2023/06/14 08:20:59;;;;;;;48.90;7.18;;;20.10;55.90;;;;;;5034881;28;20037;-54
2023/06/14 08:23:24;;;;;;;32.22;6.13;;;20.10;55.90;;;;;;5037612;28;20022;-54
2023/06/14 08:25:50;;;;;;;24.15;5.95;;;20.10;55.80;;;;;;5021765;28;20026;-54
2023/06/14 08:28:15;;;;;;;42.97;7.43;;;20.10;56.50;;;;;;5021539;28;20034;-54
2023/06/14 08:30:42;;;;;;;37.70;6.97;;;20.20;56.00;;;;;;5040768;28;20075;-55
2023/06/14 08:33:08;;;;;;;42.25;7.15;;;20.20;56.00;;;;;;5040213;28;20036;-55
2023/06/14 08:35:36;;;;;;;167.00;19.92;;;20.30;56.00;;;;;;5042154;28;20034;-55
2023/06/14 08:38:02;;;;;;;98.60;12.13;;;20.30;56.10;;;;;;5042077;28;20025;-55
2023/06/14 08:40:28;;;;;;;68.82;8.45;;;20.30;55.90;;;;;;5032365;28;20049;-55
2023/06/14 08:42:54;;;;;;;30.92;7.40;;;20.30;55.80;;;;;;5028841;28;20086;-55
2023/06/14 08:45:21;;;;;;;56.08;8.57;;;20.30;56.00;;;;;;5043009;28;20038;-55
2023/06/14 08:47:51;;;;;;;66.00;9.73;;;20.30;56.00;;;;;;5036320;28;20061;-55
2023/06/14 08:50:23;;;;;;;62.10;8.88;;;20.30;56.00;;;;;;5045048;28;20032;-55
2023/06/14 08:52:52;;;;;;;80.60;10.90;;;20.30;56.10;;;;;;5042575;28;20025;-55
2023/06/14 08:55:19;;;;;;;48.58;8.10;;;20.30;56.00;;;;;;5044747;28;20303;-55
2023/06/14 08:57:46;;;;;;;69.07;11.52;;;20.30;55.50;;;;;;5043256;28;20096;-55
2023/06/14 09:00:12;;;;;;;97.30;13.25;;;20.40;55.90;;;;;;5045389;28;20124;-55
2023/06/14 09:02:43;;;;;;;165.07;20.05;;;20.40;55.80;;;;;;5038231;28;20113;-55
2023/06/14 09:05:13;;;;;;;160.38;18.00;;;20.50;55.90;;;;;;5028400;28;20030;-55
2023/06/14 09:07:42;;;;;;;78.15;10.63;;;20.50;55.70;;;;;;5050026;28;20468;-55
2023/06/14 09:10:15;;;;;;;30.13;6.80;;;20.50;55.00;;;;;;5035024;28;20045;-55
2023/06/14 09:12:40;;;;;;;28.65;4.97;;;20.50;54.70;;;;;;5039083;28;20037;-55
2023/06/14 09:15:08;;;;;;;24.95;5.35;;;20.60;54.10;;;;;;5027190;28;20049;-55
2023/06/14 09:17:36;;;;;;;22.90;5.28;;;20.70;54.10;;;;;;5030462;28;20033;-55
2023/06/14 09:20:06;;;;;;;88.05;10.82;;;20.70;54.00;;;;;;5047858;28;20045;-55
2023/06/14 09:22:34;;;;;;;44.20;7.10;;;20.80;54.10;;;;;;5026409;28;20021;-55
2023/06/14 09:24:59;;;;;;;32.33;5.57;;;20.80;54.00;;;;;;5048327;28;20048;-55
2023/06/14 09:27:28;;;;;;;27.08;6.20;;;20.80;53.90;;;;;;5043147;28;20101;-55
2023/06/14 09:29:54;;;;;;;23.38;5.03;;;20.90;53.90;;;;;;5052705;28;20025;-55
2023/06/14 09:32:21;;;;;;;12.68;4.63;;;20.90;53.90;;;;;;5036944;28;20049;-55
2023/06/14 09:34:46;;;;;;;20.60;4.63;;;21.00;53.70;;;;;;5041849;28;20036;-55
2023/06/14 09:37:12;;;;;;;16.58;4.38;;;21.00;53.80;;;;;;5045086;28;20029;-55
2023/06/14 09:39:50;;;;;;;28.83;5.50;;;21.10;53.70;;;;;;5043743;28;20439;-55
2023/06/14 09:42:18;;;;;;;31.48;7.05;;;21.10;53.80;;;;;;5041858;28;20033;-55
2023/06/14 09:44:44;;;;;;;46.50;6.63;;;21.10;53.70;;;;;;5044698;28;20021;-55
2023/06/14 09:47:09;;;;;;;52.08;7.72;;;21.20;53.70;;;;;;5027072;28;20034;-55
2023/06/14 09:49:35;;;;;;;23.80;5.45;;;21.20;53.80;;;;;;5044016;28;20036;-55
2023/06/14 09:52:00;;;;;;;24.85;5.05;;;21.30;53.60;;;;;;5025554;28;20102;-55
2023/06/14 09:54:26;;;;;;;21.25;5.47;;;21.30;53.60;;;;;;5037067;28;20030;-55
2023/06/14 09:56:52;;;;;;;14.55;3.78;;;21.30;53.70;;;;;;5044250;28;20163;-55
2023/06/14 09:59:20;;;;;;;24.90;4.57;;;21.40;53.70;;;;;;5044226;28;20051;-55
2023/06/14 10:01:46;;;;;;;37.25;6.13;;;21.40;53.30;;;;;;5040498;28;20454;-55
2023/06/14 10:04:11;;;;;;;28.98;6.15;;;21.50;53.40;;;;;;5038797;28;20037;-55
2023/06/14 10:06:39;;;;;;;37.50;7.50;;;21.50;53.50;;;;;;5043380;28;20302;-55
2023/06/14 10:09:05;;;;;;;34.13;6.65;;;21.60;53.50;;;;;;5038121;28;20049;-55
2023/06/14 10:11:31;;;;;;;57.90;8.60;;;21.60;53.30;;;;;;5042823;28;20105;-55
2023/06/14 10:13:57;;;;;;;44.22;7.18;;;21.70;53.30;;;;;;5044861;28;20147;-55
2023/06/14 10:16:37;;;;;;;62.33;7.80;;;21.70;53.00;;;;;;5027869;28;20066;-55
2023/06/14 10:19:14;;;;;;;37.83;6.03;;;21.80;52.90;;;;;;5026188;28;20100;-55
2023/06/14 10:22:10;;;;;;;22.00;4.65;;;21.80;53.20;;;;;;5036534;28;20105;-55
2023/06/14 10:24:43;;;;;;;40.03;6.53;;;21.90;52.30;;;;;;5025195;28;20049;-55
2023/06/14 10:27:11;;;;;;;73.57;10.50;;;21.90;52.50;;;;;;5022952;28;20038;-55
2023/06/14 10:29:58;;;;;;;41.13;6.82;;;22.00;52.90;;;;;;5023839;28;20065;-55
2023/06/14 10:32:25;;;;;;;42.85;7.22;;;22.10;52.30;;;;;;5025245;28;20034;-54
2023/06/14 10:35:14;;;;;;;33.97;6.25;;;22.10;52.30;;;;;;5042013;28;20071;-55
2023/06/14 10:37:39;;;;;;;25.63;4.88;;;22.20;52.20;;;;;;5043176;28;20371;-55
2023/06/14 10:40:06;;;;;;;47.50;7.22;;;22.30;52.00;;;;;;5043785;28;20052;-55
2023/06/14 10:42:31;;;;;;;40.10;7.93;;;22.30;52.40;;;;;;5037650;28;20033;-55
2023/06/14 10:45:00;;;;;;;51.10;8.57;;;22.40;52.10;;;;;;5034757;28;20030;-55
2023/06/14 10:47:34;;;;;;;45.63;7.97;;;22.50;52.10;;;;;;5025220;28;20034;-55
2023/06/14 10:50:10;;;;;;;69.35;8.93;;;22.50;51.60;;;;;;5025755;28;20030;-55
2023/06/14 10:52:41;;;;;;;52.00;7.45;;;22.60;51.90;;;;;;5042378;28;20021;-56
2023/06/14 10:55:14;;;;;;;33.97;5.50;;;22.70;51.60;;;;;;5043680;28;20037;-55
2023/06/14 10:57:51;;;;;;;51.67;7.30;;;22.80;50.70;;;;;;5044994;28;20034;-55
2023/06/14 11:00:21;;;;;;;66.70;9.93;;;22.90;50.60;;;;;;5045349;28;20041;-55
2023/06/14 11:03:20;;;;;;;46.72;7.88;;;22.90;50.80;;;;;;5044393;28;20041;-55
2023/06/14 11:05:51;;;;;;;28.38;6.43;;;23.00;50.60;;;;;;5045382;28;20034;-55
2023/06/14 11:08:26;;;;;;;55.22;9.57;;;23.20;50.20;;;;;;5043804;28;20121;-55
2023/06/14 11:10:52;;;;;;;101.25;12.57;;;23.30;50.10;;;;;;5043735;28;20033;-55
2023/06/14 11:13:18;;;;;;;105.18;14.18;;;23.40;50.00;;;;;;5041894;28;20033;-55
2023/06/14 11:15:45;;;;;;;45.03;8.85;;;23.50;49.90;;;;;;5036891;28;20290;-55
2023/06/14 11:18:10;;;;;;;24.40;5.85;;;23.70;49.00;;;;;;5036617;28;20033;-55
2023/06/14 11:20:36;;;;;;;59.08;8.93;;;23.80;48.40;;;;;;5023525;28;20040;-55
2023/06/14 11:23:02;;;;;;;25.15;4.80;;;23.80;48.40;;;;;;5035442;28;20120;-55
2023/06/14 11:25:30;;;;;;;46.38;6.97;;;23.90;47.80;;;;;;5039651;28;20033;-55
2023/06/14 11:27:56;;;;;;;41.63;7.05;;;24.10;47.90;;;;;;5035348;28;20045;-55
2023/06/14 11:30:22;;;;;;;36.53;5.72;;;24.20;48.00;;;;;;5026366;28;20030;-55
2023/06/14 11:32:48;;;;;;;28.35;5.20;;;24.30;47.60;;;;;;5035687;28;20040;-55
2023/06/14 11:35:14;;;;;;;33.83;5.55;;;24.30;47.60;;;;;;5035075;28;20026;-55
2023/06/14 11:37:41;;;;;;;19.25;4.47;;;24.40;47.40;;;;;;5038470;28;20102;-56
2023/06/14 11:40:08;;;;;;;18.88;4.47;;;24.50;47.30;;;;;;5032567;28;21077;-55
2023/06/14 11:42:33;;;;;;;21.35;4.68;;;24.50;47.40;;;;;;5030555;28;20102;-55
2023/06/14 11:44:59;;;;;;;30.63;3.85;;;24.50;47.50;;;;;;5031775;28;20086;-55
2023/06/14 11:47:30;;;;;;;25.33;4.18;;;24.60;46.90;;;;;;5027367;28;20034;-55
2023/06/14 11:49:58;;;;;;;20.67;4.53;;;24.60;46.90;;;;;;5059965;28;20059;-55
2023/06/14 11:52:23;;;;;;;18.25;4.15;;;24.70;47.00;;;;;;5035002;28;20041;-55
2023/06/14 11:54:49;;;;;;;14.65;4.00;;;24.80;46.70;;;;;;5047481;28;20493;-55
2023/06/14 11:57:14;;;;;;;16.33;3.92;;;24.90;46.80;;;;;;5030420;28;20034;-55
2023/06/14 11:59:40;;;;;;;20.98;4.57;;;25.00;46.80;;;;;;5040701;28;20125;-54
2023/06/14 12:02:07;;;;;;;21.83;4.72;;;25.00;46.80;;;;;;5020110;28;20041;-54
2023/06/14 12:04:32;;;;;;;23.70;4.60;;;25.10;46.70;;;;;;5042263;28;20037;-55
2023/06/14 12:07:14;;;;;;;32.33;5.75;;;25.20;46.80;;;;;;5032271;28;20284;-55
2023/06/14 12:09:43;;;;;;;27.20;5.05;;;25.20;46.90;;;;;;5044988;28;20315;-55
2023/06/14 12:12:10;;;;;;;22.88;5.13;;;25.30;47.00;;;;;;5041368;28;20040;-55
2023/06/14 12:14:36;;;;;;;22.65;5.30;;;25.30;47.00;;;;;;5044613;28;20026;-55
2023/06/14 12:17:08;;;;;;;22.13;3.88;;;25.40;46.80;;;;;;5029128;28;20025;-55
2023/06/14 12:19:41;;;;;;;16.90;4.13;;;25.50;46.40;;;;;;5046915;28;20025;-55
2023/06/14 12:22:06;;;;;;;22.30;5.10;;;25.60;46.60;;;;;;5047602;28;20037;-55
2023/06/14 12:24:32;;;;;;;25.98;5.03;;;25.70;46.70;;;;;;5041291;28;20052;-55
2023/06/14 12:27:04;;;;;;;19.55;4.63;;;25.70;46.70;;;;;;5046384;28;20129;-55
2023/06/14 12:29:30;;;;;;;17.85;4.43;;;25.80;46.50;;;;;;5041923;28;20048;-55
2023/06/14 12:31:56;;;;;;;23.23;4.80;;;25.80;46.40;;;;;;5038405;28;20041;-55
2023/06/14 12:34:27;;;;;;;24.27;5.25;;;25.90;46.40;;;;;;5028362;28;20025;-55
2023/06/14 12:36:53;;;;;;;45.92;7.43;;;26.00;46.50;;;;;;5031413;28;20033;-55